createdAt,value
2019-01-08T00:01:53.740Z,8.07
2019-01-08T00:04:22.152Z,7.00
2019-01-08T00:06:50.593Z,9.33
2019-01-08T00:09:19.031Z,7.17
2019-01-08T00:11:47.487Z,8.00
2019-01-08T00:14:15.921Z,6.73
2019-01-08T00:16:44.355Z,8.57
2019-01-08T00:19:12.812Z,7.00
2019-01-08T00:21:41.309Z,9.13
2019-01-08T00:24:09.738Z,8.63
2019-01-08T00:26:38.160Z,9.33
2019-01-08T00:29:06.607Z,6.63
2019-01-08T00:31:35.048Z,7.93
2019-01-08T00:34:03.497Z,7.37
2019-01-08T00:36:31.939Z,6.93
2019-01-08T00:39:00.399Z,7.83
2019-01-08T00:41:28.803Z,8.30
2019-01-08T00:43:57.258Z,8.07
2019-01-08T00:46:25.686Z,8.13
2019-01-08T00:48:54.223Z,10.90
2019-01-08T00:51:22.662Z,9.80
2019-01-08T00:53:51.132Z,10.57
2019-01-08T00:56:19.647Z,13.33
2019-01-08T00:58:51.596Z,11.63
2019-01-08T01:01:18.356Z,14.10
2019-01-08T01:03:46.795Z,15.00
2019-01-08T01:06:15.261Z,6.97
2019-01-08T01:08:43.692Z,5.50
2019-01-08T01:11:12.147Z,5.30
2019-01-08T01:13:40.583Z,4.67
2019-01-08T01:16:09.031Z,5.10
2019-01-08T01:18:37.544Z,4.77
2019-01-08T01:21:06.043Z,4.43
2019-01-08T01:23:34.493Z,3.90
2019-01-08T01:26:02.955Z,4.07
2019-01-08T01:28:31.379Z,3.37
2019-01-08T01:30:59.826Z,3.40
2019-01-08T01:33:28.250Z,3.87
2019-01-08T01:35:56.683Z,3.40
2019-01-08T01:38:25.131Z,3.57
2019-01-08T01:40:53.563Z,3.60
2019-01-08T01:43:22.004Z,3.60
2019-01-08T01:45:50.439Z,3.60
2019-01-08T01:48:18.883Z,3.20
2019-01-08T01:50:47.292Z,3.80
2019-01-08T01:53:15.755Z,3.57
2019-01-08T01:55:44.186Z,3.33
2019-01-08T01:58:12.635Z,3.27
2019-01-08T02:00:41.055Z,3.30
2019-01-08T02:03:09.504Z,3.67
2019-01-08T02:05:38.203Z,3.33
2019-01-08T02:08:06.665Z,4.07
2019-01-08T02:10:35.103Z,3.50
2019-01-08T02:13:03.546Z,3.80
2019-01-08T02:15:32.039Z,3.70
2019-01-08T02:18:00.493Z,3.43
2019-01-08T02:20:28.911Z,3.17
2019-01-08T02:22:57.332Z,3.77
2019-01-08T02:25:25.853Z,3.40
2019-01-08T02:27:54.273Z,3.23
2019-01-08T02:30:22.734Z,4.33
2019-01-08T02:32:51.162Z,3.50
2019-01-08T02:35:19.611Z,3.87
2019-01-08T02:37:48.026Z,3.80
2019-01-08T02:40:16.489Z,3.53
2019-01-08T02:42:44.949Z,4.23
2019-01-08T02:45:13.461Z,3.87
2019-01-08T02:47:41.884Z,4.50
2019-01-08T02:50:10.411Z,3.93
2019-01-08T02:52:38.825Z,4.20
2019-01-08T02:55:07.339Z,3.57
2019-01-08T02:57:35.762Z,3.80
2019-01-08T03:00:06.130Z,3.47
2019-01-08T03:02:34.601Z,4.13
2019-01-08T03:05:03.072Z,3.47
2019-01-08T03:07:31.495Z,3.70
2019-01-08T03:09:59.951Z,4.23
2019-01-08T03:12:28.443Z,4.03
2019-01-08T03:14:56.907Z,3.93
2019-01-08T03:17:25.345Z,4.00
2019-01-08T03:19:53.763Z,3.77
2019-01-08T03:22:22.296Z,4.50
2019-01-08T03:24:50.716Z,4.13
2019-01-08T03:27:19.162Z,4.17
2019-01-08T03:29:47.586Z,4.83
2019-01-08T03:32:16.120Z,3.90
2019-01-08T03:34:44.527Z,4.73
2019-01-08T03:37:12.987Z,4.13
2019-01-08T03:39:41.410Z,4.63
2019-01-08T03:42:09.856Z,4.30
2019-01-08T03:44:38.293Z,4.67
2019-01-08T03:47:06.748Z,4.27
2019-01-08T03:49:35.195Z,4.83
2019-01-08T03:52:03.645Z,4.50
2019-01-08T03:54:32.078Z,4.70
2019-01-08T03:57:00.602Z,4.40
2019-01-08T03:59:29.094Z,4.30
2019-01-08T04:01:57.565Z,4.70
2019-01-08T04:04:25.979Z,3.80
2019-01-08T04:06:54.415Z,4.50
2019-01-08T04:09:22.858Z,4.13
2019-01-08T04:11:51.303Z,4.17
2019-01-08T04:14:19.747Z,4.07
2019-01-08T04:16:48.174Z,5.33
2019-01-08T04:19:16.688Z,3.87
2019-01-08T04:21:45.114Z,4.53
2019-01-08T04:24:13.575Z,4.53
2019-01-08T04:26:42.003Z,3.60
2019-01-08T04:29:10.465Z,4.10
2019-01-08T04:31:38.882Z,4.60
2019-01-08T04:34:07.326Z,4.40
2019-01-08T04:36:35.747Z,4.27
2019-01-08T04:39:05.131Z,4.20
2019-01-08T04:41:33.563Z,4.60
2019-01-08T04:44:01.986Z,3.80
2019-01-08T04:46:30.445Z,4.93
2019-01-08T04:48:58.860Z,5.03
2019-01-08T04:51:27.307Z,5.13
2019-01-08T04:53:55.736Z,3.93
2019-01-08T04:56:24.186Z,4.63
2019-01-08T04:58:52.630Z,4.47
2019-01-08T05:01:21.084Z,4.70
2019-01-08T05:03:49.519Z,4.37
2019-01-08T05:06:17.967Z,4.40
2019-01-08T05:08:46.402Z,3.77
2019-01-08T05:11:14.830Z,4.40
2019-01-08T05:13:43.321Z,4.50
2019-01-08T05:16:11.771Z,4.00
2019-01-08T05:18:40.206Z,4.73
2019-01-08T05:21:08.745Z,5.23
2019-01-08T05:23:37.163Z,5.30
2019-01-08T05:26:05.604Z,5.87
2019-01-08T05:28:34.047Z,5.27
2019-01-08T05:31:02.485Z,4.97
2019-01-08T05:33:30.926Z,4.27
2019-01-08T05:35:59.389Z,4.70
2019-01-08T05:38:27.814Z,3.90
2019-01-08T05:40:56.265Z,4.30
2019-01-08T05:43:27.630Z,4.47
2019-01-08T05:45:56.101Z,4.37
2019-01-08T05:48:24.531Z,4.80
2019-01-08T05:50:52.963Z,4.20
2019-01-08T05:53:21.399Z,4.50
2019-01-08T05:55:49.823Z,5.07
2019-01-08T05:58:18.274Z,4.40
2019-01-08T06:00:46.700Z,5.77
2019-01-08T06:03:15.159Z,5.30
2019-01-08T06:05:43.595Z,5.40
2019-01-08T06:08:12.062Z,4.97
2019-01-08T06:10:40.575Z,5.37
2019-01-08T06:13:08.337Z,4.17
2019-01-08T06:15:36.748Z,5.03
2019-01-08T06:18:05.239Z,4.60
2019-01-08T06:20:33.673Z,5.00
2019-01-08T06:23:03.623Z,5.07
2019-01-08T06:25:32.078Z,4.37
2019-01-08T06:28:00.564Z,4.77
2019-01-08T06:30:28.978Z,4.53
2019-01-08T06:32:57.414Z,4.80
2019-01-08T06:35:25.864Z,4.57
2019-01-08T06:37:54.286Z,4.87
2019-01-08T06:40:22.740Z,4.70
2019-01-08T06:42:51.179Z,4.93
2019-01-08T06:45:19.631Z,5.23
2019-01-08T06:47:48.045Z,4.77
2019-01-08T06:50:16.499Z,4.90
2019-01-08T06:52:44.949Z,6.90
2019-01-08T06:55:13.419Z,6.90
2019-01-08T06:57:41.829Z,4.87
2019-01-08T07:00:10.692Z,5.03
2019-01-08T07:02:39.110Z,5.00
2019-01-08T07:05:07.636Z,4.10
2019-01-08T07:07:36.067Z,4.73
2019-01-08T07:10:06.233Z,4.77
2019-01-08T07:12:34.684Z,5.73
2019-01-08T07:15:03.116Z,4.63
2019-01-08T07:17:31.579Z,4.97
2019-01-08T07:20:00.035Z,5.00
2019-01-08T07:22:28.551Z,4.90
2019-01-08T07:24:56.994Z,4.83
2019-01-08T07:27:25.435Z,5.37
2019-01-08T07:29:53.879Z,5.30
2019-01-08T07:32:22.319Z,4.40
2019-01-08T07:34:50.828Z,5.67
2019-01-08T07:37:19.276Z,4.60
2019-01-08T07:39:47.715Z,4.47
2019-01-08T07:42:16.167Z,5.10
2019-01-08T07:44:44.609Z,4.70
2019-01-08T07:47:13.095Z,5.20
2019-01-08T07:49:41.511Z,4.20
2019-01-08T07:52:09.976Z,4.53
2019-01-08T07:54:38.431Z,4.77
2019-01-08T07:57:07.019Z,4.67
2019-01-08T07:59:35.436Z,4.67
2019-01-08T08:02:03.913Z,4.90
2019-01-08T08:04:32.339Z,4.33
2019-01-08T08:07:00.761Z,5.00
2019-01-08T08:09:29.233Z,4.53
2019-01-08T08:11:57.664Z,4.00
2019-01-08T08:14:26.127Z,4.23
2019-01-08T08:16:54.558Z,4.10
2019-01-08T08:19:23.012Z,4.47
2019-01-08T08:21:51.451Z,3.80
2019-01-08T08:24:19.899Z,4.40
2019-01-08T08:26:48.337Z,3.87
2019-01-08T08:29:16.789Z,4.10
2019-01-08T08:31:45.305Z,3.60
2019-01-08T08:34:13.758Z,4.17
2019-01-08T08:36:42.184Z,3.97
2019-01-08T08:39:10.650Z,4.07
2019-01-08T08:41:39.150Z,4.10
2019-01-08T08:44:07.657Z,3.90
2019-01-08T08:46:36.085Z,4.53
2019-01-08T08:49:04.594Z,4.17
2019-01-08T08:51:33.098Z,4.77
2019-01-08T08:54:01.705Z,4.03
2019-01-08T08:56:30.168Z,3.97
2019-01-08T08:58:58.627Z,4.27
2019-01-08T09:01:27.060Z,3.90
2019-01-08T09:03:55.479Z,4.83
2019-01-08T09:06:23.934Z,4.20
2019-01-08T09:08:52.433Z,3.83
2019-01-08T09:11:20.964Z,4.40
2019-01-08T09:13:49.458Z,4.50
2019-01-08T09:16:17.969Z,3.43
2019-01-08T09:18:46.396Z,3.83
2019-01-08T09:21:14.857Z,4.50
2019-01-08T09:23:43.292Z,3.67
2019-01-08T09:26:11.738Z,4.30
2019-01-08T09:28:40.166Z,4.40
2019-01-08T09:31:15.242Z,3.87
2019-01-08T09:33:38.799Z,3.80
2019-01-08T09:36:07.237Z,3.83
2019-01-08T09:38:35.666Z,4.10
2019-01-08T09:41:04.171Z,3.63
2019-01-08T09:43:32.648Z,4.67
2019-01-08T09:46:01.091Z,3.37
2019-01-08T09:48:29.540Z,3.20
2019-01-08T09:50:57.968Z,3.70
2019-01-08T09:53:26.416Z,3.90
2019-01-08T09:55:54.863Z,3.60
2019-01-08T09:58:24.642Z,3.80
2019-01-08T10:00:53.187Z,3.90
2019-01-08T10:03:21.627Z,4.27
2019-01-08T10:05:50.051Z,3.93
2019-01-08T10:08:18.510Z,3.60
2019-01-08T10:10:46.946Z,4.57
2019-01-08T10:13:15.391Z,4.20
2019-01-08T10:15:43.843Z,3.70
2019-01-08T10:18:12.293Z,4.10
2019-01-08T10:20:40.731Z,3.80
2019-01-08T10:23:10.219Z,4.10
2019-01-08T10:25:38.915Z,3.90
2019-01-08T10:28:07.373Z,3.80
2019-01-08T10:30:35.803Z,4.23
2019-01-08T10:33:04.231Z,4.33
2019-01-08T10:35:32.681Z,4.23
2019-01-08T10:38:01.177Z,4.23
2019-01-08T10:40:29.632Z,4.27
2019-01-08T10:42:58.064Z,4.40
2019-01-08T10:45:26.686Z,4.53
2019-01-08T10:47:55.196Z,4.57
2019-01-08T10:50:23.656Z,4.53
2019-01-08T10:52:52.111Z,4.30
2019-01-08T10:55:20.549Z,4.20
2019-01-08T10:57:48.970Z,4.87
2019-01-08T11:00:17.421Z,3.80
2019-01-08T11:02:45.839Z,4.13
2019-01-08T11:05:14.411Z,3.47
2019-01-08T11:07:42.885Z,3.70
2019-01-08T11:10:11.354Z,4.03
2019-01-08T11:12:39.785Z,3.87
2019-01-08T11:15:08.704Z,3.33
2019-01-08T11:17:37.216Z,3.73
2019-01-08T11:20:08.565Z,4.27
2019-01-08T11:22:36.987Z,3.87
2019-01-08T11:25:06.195Z,4.13
2019-01-08T11:27:34.624Z,4.13
2019-01-08T11:30:03.071Z,4.73
2019-01-08T11:32:31.507Z,4.20
2019-01-08T11:35:00.168Z,4.17
2019-01-08T11:37:28.688Z,4.30
2019-01-08T11:39:57.156Z,3.57
2019-01-08T11:42:25.603Z,4.40
2019-01-08T11:44:54.044Z,4.10
2019-01-08T11:47:22.526Z,4.20
2019-01-08T11:49:51.039Z,4.47
2019-01-08T11:52:19.485Z,4.50
2019-01-08T11:54:47.914Z,4.90
2019-01-08T11:57:16.363Z,4.70
2019-01-08T11:59:44.815Z,5.03
2019-01-08T12:02:13.261Z,5.67
2019-01-08T12:04:41.732Z,5.00
2019-01-08T12:07:10.174Z,5.10
2019-01-08T12:09:38.604Z,5.37
2019-01-08T12:12:07.146Z,4.73
2019-01-08T12:14:35.592Z,5.43
2019-01-08T12:17:04.124Z,6.47
2019-01-08T12:19:32.563Z,4.43
2019-01-08T12:22:01.019Z,4.17
2019-01-08T12:24:29.440Z,4.13
2019-01-08T12:26:57.896Z,4.20
2019-01-08T12:29:26.398Z,4.07
2019-01-08T12:31:55.886Z,5.07
2019-01-08T12:34:24.437Z,5.30
2019-01-08T12:36:52.870Z,5.30
2019-01-08T12:39:21.341Z,4.90
2019-01-08T12:41:49.771Z,3.67
2019-01-08T12:44:18.223Z,4.03
2019-01-08T12:46:46.678Z,3.83
2019-01-08T12:49:15.218Z,3.60
2019-01-08T12:51:43.695Z,3.90
2019-01-08T12:54:12.161Z,4.20
2019-01-08T12:56:40.580Z,3.73
2019-01-08T12:59:09.020Z,4.17
2019-01-08T13:01:37.483Z,3.47
2019-01-08T13:04:05.929Z,3.97
2019-01-08T13:06:34.364Z,4.20
2019-01-08T13:09:04.662Z,4.53
2019-01-08T13:11:33.079Z,4.27
2019-01-08T13:14:01.565Z,4.37
2019-01-08T13:16:30.041Z,4.37
2019-01-08T13:18:58.472Z,4.77
2019-01-08T13:21:26.955Z,4.40
2019-01-08T13:23:55.402Z,4.90
2019-01-08T13:26:23.934Z,5.37
2019-01-08T13:28:52.364Z,5.10
2019-01-08T13:31:20.830Z,4.60
2019-01-08T13:33:49.294Z,4.70
2019-01-08T13:36:17.751Z,5.00
2019-01-08T13:38:47.057Z,3.67
2019-01-08T13:41:15.595Z,4.43
2019-01-08T13:43:44.021Z,5.17
2019-01-08T13:46:12.479Z,4.07
2019-01-08T13:48:40.920Z,4.67
2019-01-08T13:51:09.350Z,4.97
2019-01-08T13:53:37.783Z,6.33
2019-01-08T13:56:06.329Z,6.97
2019-01-08T13:58:34.769Z,6.97
2019-01-08T14:01:03.290Z,5.93
2019-01-08T14:03:31.804Z,5.30
2019-01-08T14:06:00.268Z,4.30
2019-01-08T14:08:28.786Z,3.93
2019-01-08T14:10:57.254Z,4.37
2019-01-08T14:13:25.718Z,4.30
2019-01-08T14:15:54.142Z,3.50
2019-01-08T14:18:22.592Z,3.80
2019-01-08T14:20:51.028Z,3.47
2019-01-08T14:23:19.478Z,3.00
2019-01-08T14:25:47.965Z,3.63
2019-01-08T14:28:16.413Z,3.13
2019-01-08T14:30:44.839Z,4.20
2019-01-08T14:33:13.303Z,3.53
2019-01-08T14:35:41.742Z,3.80
2019-01-08T14:38:10.185Z,3.43
2019-01-08T14:40:38.848Z,4.07
2019-01-08T14:43:13.903Z,3.60
2019-01-08T14:45:37.535Z,3.97
2019-01-08T14:48:05.993Z,4.53
2019-01-08T14:50:34.423Z,4.67
2019-01-08T14:53:02.878Z,4.70
2019-01-08T14:55:31.326Z,4.40
2019-01-08T14:57:59.786Z,4.77
2019-01-08T15:00:28.276Z,5.17
2019-01-08T15:02:56.707Z,4.67
2019-01-08T15:05:25.157Z,5.47
2019-01-08T15:07:53.592Z,6.33
2019-01-08T15:10:22.086Z,8.10
2019-01-08T15:12:50.510Z,5.23
2019-01-08T15:15:19.053Z,5.33
2019-01-08T15:17:47.477Z,5.10
2019-01-08T15:20:15.952Z,4.87
2019-01-08T15:22:44.415Z,5.20
2019-01-08T15:25:12.865Z,5.13
2019-01-08T15:27:41.321Z,5.60
2019-01-08T15:30:10.425Z,4.50
2019-01-08T15:32:38.926Z,4.87
2019-01-08T15:35:07.443Z,5.30
2019-01-08T15:37:35.876Z,3.80
2019-01-08T15:40:05.894Z,3.93
2019-01-08T15:42:34.351Z,3.00
2019-01-08T15:45:02.846Z,3.70
2019-01-08T15:47:31.350Z,4.13
2019-01-08T15:49:59.808Z,3.57
2019-01-08T15:52:33.049Z,3.90
2019-01-08T15:55:01.491Z,3.70
2019-01-08T15:57:29.941Z,4.67
2019-01-08T15:59:58.381Z,5.23
2019-01-08T16:02:26.892Z,3.97
2019-01-08T16:04:55.341Z,4.57
2019-01-08T16:07:23.794Z,4.73
2019-01-08T16:09:52.327Z,4.70
2019-01-08T16:12:20.847Z,4.40
2019-01-08T16:14:49.359Z,4.10
2019-01-08T16:17:17.794Z,4.83
2019-01-08T16:19:46.301Z,3.60
2019-01-08T16:22:14.755Z,4.40
2019-01-08T16:24:43.188Z,4.17
2019-01-08T16:27:11.631Z,5.03
2019-01-08T16:29:40.066Z,6.47
2019-01-08T16:32:08.524Z,6.30
2019-01-08T16:34:36.979Z,6.57
2019-01-08T16:37:05.466Z,4.37
2019-01-08T16:39:33.926Z,4.23
2019-01-08T16:42:02.477Z,4.30
2019-01-08T16:44:30.918Z,4.20
2019-01-08T16:46:59.447Z,4.00
2019-01-08T16:49:27.880Z,4.43
2019-01-08T16:51:56.435Z,4.70
2019-01-08T16:54:24.931Z,4.53
2019-01-08T16:56:53.357Z,4.73
2019-01-08T16:59:21.832Z,4.07
2019-01-08T17:01:50.262Z,5.23
2019-01-08T17:04:18.720Z,4.63
2019-01-08T17:06:47.147Z,4.90
2019-01-08T17:09:15.681Z,4.83
2019-01-08T17:11:44.208Z,4.73
2019-01-08T17:14:12.741Z,4.90
2019-01-08T17:16:41.252Z,4.33
2019-01-08T17:19:09.696Z,4.60
2019-01-08T17:21:38.186Z,4.87
2019-01-08T17:24:06.639Z,4.80
2019-01-08T17:26:35.168Z,4.17
2019-01-08T17:29:03.680Z,3.97
2019-01-08T17:31:32.109Z,5.53
2019-01-08T17:34:00.603Z,6.03
2019-01-08T17:36:29.054Z,4.93
2019-01-08T17:38:57.492Z,5.03
2019-01-08T17:41:25.948Z,5.80
2019-01-08T17:43:54.381Z,4.90
2019-01-08T17:46:22.891Z,5.20
2019-01-08T17:48:51.344Z,5.77
2019-01-08T17:51:19.807Z,6.80
2019-01-08T17:53:48.261Z,5.33
2019-01-08T17:56:16.774Z,5.73
2019-01-08T17:58:45.255Z,5.07
2019-01-08T18:01:22.111Z,4.20
2019-01-08T18:03:50.554Z,4.80
2019-01-08T18:06:19.020Z,5.43
2019-01-08T18:08:47.452Z,4.03
2019-01-08T18:11:15.914Z,4.57
2019-01-08T18:13:44.399Z,4.77
2019-01-08T18:16:12.852Z,4.50
2019-01-08T18:18:41.351Z,4.57
2019-01-08T18:21:09.824Z,4.00
2019-01-08T18:23:38.251Z,4.83
2019-01-08T18:26:06.694Z,4.73
2019-01-08T18:28:35.167Z,4.80
2019-01-08T18:31:03.641Z,4.20
2019-01-08T18:33:32.171Z,4.80
2019-01-08T18:36:00.774Z,4.50
2019-01-08T18:38:29.223Z,4.37
2019-01-08T18:40:57.659Z,4.30
2019-01-08T18:43:26.138Z,4.60
2019-01-08T18:45:54.565Z,4.97
2019-01-08T18:48:23.397Z,4.07
2019-01-08T18:50:51.892Z,4.67
2019-01-08T18:53:20.353Z,3.90
2019-01-08T18:55:48.768Z,4.20
2019-01-08T18:58:17.235Z,4.00
2019-01-08T19:00:45.681Z,3.90
2019-01-08T19:03:14.157Z,4.27
2019-01-08T19:05:42.669Z,4.10
2019-01-08T19:08:11.208Z,4.20
2019-01-08T19:10:39.636Z,3.67
2019-01-08T19:13:08.292Z,4.17
2019-01-08T19:15:36.739Z,4.43
2019-01-08T19:18:05.434Z,3.90
2019-01-08T19:20:33.900Z,4.20
2019-01-08T19:23:02.370Z,4.00
2019-01-08T19:25:30.820Z,4.53
2019-01-08T19:27:59.315Z,4.80
2019-01-08T19:30:27.811Z,4.90
2019-01-08T19:32:56.251Z,4.30
2019-01-08T19:35:31.610Z,3.90
2019-01-08T19:37:54.910Z,3.90
2019-01-08T19:40:23.383Z,3.90
2019-01-08T19:42:51.899Z,4.07
2019-01-08T19:45:22.784Z,4.17
2019-01-08T19:47:51.192Z,4.10
2019-01-08T19:50:20.074Z,3.73
2019-01-08T19:52:48.523Z,4.00
2019-01-08T19:55:16.990Z,3.97
2019-01-08T19:57:45.419Z,3.60
2019-01-08T20:00:13.911Z,4.20
2019-01-08T20:02:42.411Z,4.53
2019-01-08T20:05:10.925Z,3.87
2019-01-08T20:07:39.511Z,4.40
2019-01-08T20:10:08.129Z,4.67
2019-01-08T20:12:36.638Z,4.17
2019-01-08T20:15:07.421Z,3.77
2019-01-08T20:17:35.946Z,4.17
2019-01-08T20:20:05.143Z,3.70
2019-01-08T20:22:33.597Z,4.53
2019-01-08T20:25:02.034Z,3.93
2019-01-08T20:27:32.519Z,3.67
2019-01-08T20:30:00.659Z,4.37
2019-01-08T20:32:29.305Z,4.00
2019-01-08T20:34:57.796Z,4.67
2019-01-08T20:37:26.234Z,4.77
2019-01-08T20:39:54.693Z,4.00
2019-01-08T20:42:23.289Z,3.93
2019-01-08T20:44:51.721Z,4.70
2019-01-08T20:47:20.188Z,4.10
2019-01-08T20:49:48.620Z,3.67
2019-01-08T20:52:17.064Z,4.30
2019-01-08T20:54:45.505Z,4.50
2019-01-08T20:57:13.935Z,5.23
2019-01-08T20:59:42.395Z,7.07
2019-01-08T21:02:10.830Z,5.10
2019-01-08T21:04:39.365Z,4.67
2019-01-08T21:07:07.809Z,4.23
2019-01-08T21:09:36.269Z,4.23
2019-01-08T21:12:04.844Z,3.63
2019-01-08T21:14:33.441Z,3.70
2019-01-08T21:17:01.941Z,3.67
2019-01-08T21:19:30.471Z,3.73
2019-01-08T21:21:58.924Z,4.23
2019-01-08T21:24:28.777Z,4.53
2019-01-08T21:26:57.488Z,3.77
2019-01-08T21:29:25.936Z,4.03
2019-01-08T21:31:54.351Z,4.90
2019-01-08T21:34:22.814Z,4.17
2019-01-08T21:36:51.316Z,4.33
2019-01-08T21:39:19.775Z,5.17
2019-01-08T21:41:48.315Z,5.33
2019-01-08T21:44:16.833Z,5.03
2019-01-08T21:46:45.258Z,4.27
2019-01-08T21:49:13.754Z,3.97
2019-01-08T21:51:42.242Z,3.90
2019-01-08T21:54:10.675Z,5.27
2019-01-08T21:56:39.171Z,4.63
2019-01-08T21:59:07.619Z,4.13
2019-01-08T22:01:36.070Z,4.00
2019-01-08T22:04:04.508Z,3.47
2019-01-08T22:06:32.970Z,3.20
2019-01-08T22:09:01.471Z,3.60
2019-01-08T22:11:29.943Z,3.73
2019-01-08T22:13:58.393Z,3.83
2019-01-08T22:16:27.084Z,3.20
2019-01-08T22:18:55.617Z,3.70
2019-01-08T22:21:24.068Z,3.50
2019-01-08T22:23:52.496Z,3.03
2019-01-08T22:26:22.739Z,2.90
2019-01-08T22:28:51.198Z,3.63
2019-01-08T22:31:19.653Z,3.33
2019-01-08T22:33:48.149Z,3.30
2019-01-08T22:36:16.602Z,3.20
2019-01-08T22:38:45.071Z,3.23
2019-01-08T22:41:13.510Z,3.43
2019-01-08T22:43:41.964Z,3.50
2019-01-08T22:46:10.495Z,4.00
2019-01-08T22:48:39.018Z,3.70
2019-01-08T22:51:07.555Z,3.83
2019-01-08T22:53:36.022Z,3.30
2019-01-08T22:56:04.514Z,3.43
2019-01-08T22:58:33.067Z,3.83
2019-01-08T23:01:03.208Z,3.83
2019-01-08T23:03:31.754Z,4.00
2019-01-08T23:06:00.230Z,4.30
2019-01-08T23:08:28.679Z,4.00
2019-01-08T23:10:57.179Z,4.23
2019-01-08T23:13:25.763Z,2.80
2019-01-08T23:15:54.334Z,3.77
2019-01-08T23:18:23.120Z,3.10
2019-01-08T23:20:51.707Z,3.50
2019-01-08T23:23:20.141Z,3.03
2019-01-08T23:25:48.583Z,2.83
2019-01-08T23:28:17.074Z,3.20
2019-01-08T23:30:45.528Z,3.83
2019-01-08T23:33:14.015Z,3.67
2019-01-08T23:35:42.614Z,3.60
2019-01-08T23:38:11.125Z,3.10
2019-01-08T23:40:39.644Z,3.70
2019-01-08T23:43:08.139Z,4.50
2019-01-08T23:45:36.752Z,3.97
2019-01-08T23:48:05.312Z,4.37
2019-01-08T23:50:33.770Z,3.77
2019-01-08T23:53:14.037Z,3.40
2019-01-08T23:55:45.687Z,3.43
2019-01-08T23:58:32.114Z,3.70
